Whitehorse, Canada
Current Conditions -  °F | °C
As of 2:00 AM on Tuesday 21 Oct 2014 (Local Time) from CYXY Reporting Station
Clear Clear  
Wind Chill: 26°   Ceiling: Unl
Heat Index: 34°   Visibility: 15mi
Dew Point: 30°   Wind: 9mph
Humidity: 87%   Direction: 190°S
Pressure: 29.31"   Gusts: NA
Location:  60.72°N, 135.05°W
Report Text: CYXY 210900Z 19008KT 180V240 15SM SKC 01/M01 A2931 RMK AURBO SLP953
Loading
Personal Weather Stations






























Interactive Weather Map
Tropical Storm Tracking
New forecast layout! Learn more

10-Day Weather Forecast

Advertisements
Track Severe Weather on mobile